Time;durP1;ratioP1;P1;durP2;ratioP2;P2;SDS_P1;SDS_P2;PMS_P1;PMS_P2;Temp;Humidity;BMP_temperature;BMP_pressure;BME280_temperature;BME280_humidity;BME280_pressure;Samples;Min_cycle;Max_cycle;Signal;HPM_P1;HPM_P2
2023/04/24 00:01:43;;;;;;;;;;;14.40;99.90;;;;;;4932449;29;19945;-70
2023/04/24 00:04:10;;;;;;;;;;;14.30;99.90;;;;;;4927534;29;19950;-70
2023/04/24 00:06:36;;;;;;;;;;;14.30;99.90;;;;;;4933682;29;19922;-70
2023/04/24 00:09:03;;;;;;;;;;;14.30;99.90;;;;;;4930754;29;20563;-70
2023/04/24 00:11:29;;;;;;;;;;;14.30;99.90;;;;;;4948825;29;19925;-70
2023/04/24 00:13:54;;;;;;;;;;;14.20;99.90;;;;;;4931314;29;20318;-70
2023/04/24 00:16:20;;;;;;;;;;;14.10;99.90;;;;;;4931469;29;19962;-71
2023/04/24 00:18:47;;;;;;;;;;;14.20;99.90;;;;;;4915249;29;19988;-71
2023/04/24 00:21:13;;;;;;;;;;;14.10;99.90;;;;;;4930137;29;19925;-71
2023/04/24 00:23:39;;;;;;;;;;;14.10;99.90;;;;;;4946985;29;20228;-71
2023/04/24 00:26:04;;;;;;;;;;;14.00;99.90;;;;;;4930704;29;19911;-71
2023/04/24 00:28:30;;;;;;;;;;;14.00;99.90;;;;;;4930901;29;20013;-71
2023/04/24 00:30:56;;;;;;;;;;;14.00;99.90;;;;;;4931247;29;19915;-71
2023/04/24 00:33:21;;;;;;;;;;;14.00;99.90;;;;;;4933339;29;19953;-71
2023/04/24 00:35:47;;;;;;;;;;;13.90;99.90;;;;;;4948186;29;19923;-71
2023/04/24 00:38:13;;;;;;;;;;;13.90;99.90;;;;;;4932427;29;19915;-70
2023/04/24 00:40:39;;;;;;;;;;;13.80;99.90;;;;;;4949476;29;19938;-71
2023/04/24 00:43:04;;;;;;;;;;;13.80;99.90;;;;;;4933518;29;20564;-71
2023/04/24 00:45:31;;;;;;;;;;;13.80;99.90;;;;;;4932667;29;19921;-71
2023/04/24 00:47:56;;;;;;;;;;;13.80;99.90;;;;;;4949666;29;19950;-71
2023/04/24 00:50:22;;;;;;;;;;;13.70;99.90;;;;;;4949922;29;19975;-71
2023/04/24 00:52:48;;;;;;;;;;;13.50;99.90;;;;;;4947702;29;19911;-71
2023/04/24 00:55:14;;;;;;;;;;;13.50;99.90;;;;;;4933389;29;19933;-71
2023/04/24 00:57:40;;;;;;;;;;;13.60;99.90;;;;;;4931464;29;20299;-71
2023/04/24 01:00:10;;;;;;;;;;;13.50;99.90;;;;;;4933703;29;19921;-71
2023/04/24 01:02:40;;;;;;;;;;;13.50;99.90;;;;;;4934916;29;19914;-71
2023/04/24 01:05:07;;;;;;;;;;;13.50;99.90;;;;;;4933549;29;19914;-70
2023/04/24 01:07:33;;;;;;;;;;;13.50;99.90;;;;;;4930542;29;19918;-71
2023/04/24 01:09:59;;;;;;;;;;;13.50;99.90;;;;;;4917960;29;19961;-71
2023/04/24 01:12:24;;;;;;;;;;;13.40;99.90;;;;;;4932890;29;19914;-71
2023/04/24 01:14:50;;;;;;;;;;;13.30;99.90;;;;;;4944108;29;19919;-70
2023/04/24 01:17:16;;;;;;;;;;;13.30;99.90;;;;;;4933754;29;19950;-71
2023/04/24 01:19:44;;;;;;;;;;;13.30;99.90;;;;;;4933402;29;19919;-71
2023/04/24 01:22:11;;;;;;;;;;;13.30;99.90;;;;;;4934371;29;19915;-71
2023/04/24 01:24:37;;;;;;;;;;;13.20;99.90;;;;;;4936428;29;19942;-70
2023/04/24 01:27:03;;;;;;;;;;;13.20;99.90;;;;;;4952438;29;20307;-70
2023/04/24 01:29:28;;;;;;;;;;;13.20;99.90;;;;;;4948719;29;20009;-71
2023/04/24 01:31:54;;;;;;;;;;;13.10;99.90;;;;;;4936286;29;20383;-70
2023/04/24 01:34:20;;;;;;;;;;;13.20;99.90;;;;;;4935961;29;20005;-71
2023/04/24 01:36:46;;;;;;;;;;;13.00;99.90;;;;;;4936166;29;19997;-70
2023/04/24 01:39:12;;;;;;;;;;;13.10;99.90;;;;;;4939313;29;19956;-71
2023/04/24 01:41:37;;;;;;;;;;;13.10;99.90;;;;;;4936930;29;19925;-70
2023/04/24 01:44:03;;;;;;;;;;;13.00;99.90;;;;;;4936055;29;19942;-71
2023/04/24 01:46:30;;;;;;;;;;;13.00;99.90;;;;;;4951564;29;19911;-71
2023/04/24 01:48:56;;;;;;;;;;;13.00;99.90;;;;;;4936917;29;19914;-71
2023/04/24 01:51:21;;;;;;;;;;;12.90;99.90;;;;;;4934045;29;19915;-71
2023/04/24 01:53:47;;;;;;;;;;;12.80;99.90;;;;;;4937571;29;20009;-70
2023/04/24 01:56:12;;;;;;;;;;;12.90;99.90;;;;;;4936717;29;20252;-71
2023/04/24 01:58:38;;;;;;;;;;;12.90;99.90;;;;;;4952359;29;19921;-70
2023/04/24 02:01:05;;;;;;;;;;;12.90;99.90;;;;;;4936397;29;19921;-71
2023/04/24 02:03:31;;;;;;;;;;;12.90;99.90;;;;;;4936300;29;19997;-71
2023/04/24 02:05:57;;;;;;;;;;;12.90;99.90;;;;;;4934792;29;19918;-70
2023/04/24 02:08:23;;;;;;;;;;;12.90;99.90;;;;;;4935520;29;19914;-71
2023/04/24 02:10:48;;;;;;;;;;;12.80;99.90;;;;;;4936210;29;19914;-71
2023/04/24 02:13:14;;;;;;;;;;;12.70;99.90;;;;;;4935518;29;19941;-71
2023/04/24 02:15:40;;;;;;;;;;;12.70;99.90;;;;;;4936095;29;19914;-70
2023/04/24 02:18:06;;;;;;;;;;;12.80;99.90;;;;;;4936237;29;20221;-71
2023/04/24 02:20:33;;;;;;;;;;;12.80;99.90;;;;;;4933978;29;19961;-70
2023/04/24 02:23:01;;;;;;;;;;;12.70;99.90;;;;;;4936178;29;19911;-71
2023/04/24 02:25:26;;;;;;;;;;;12.70;99.90;;;;;;4943065;29;19969;-71
2023/04/24 02:27:52;;;;;;;;;;;12.70;99.90;;;;;;4935791;29;19980;-71
2023/04/24 02:30:18;;;;;;;;;;;12.70;99.90;;;;;;4935783;29;20412;-71
2023/04/24 02:32:43;;;;;;;;;;;12.70;99.90;;;;;;4948879;28;19949;-67
2023/04/24 02:35:10;;;;;;;;;;;12.70;99.90;;;;;;4950577;29;19918;-67
2023/04/24 02:37:36;;;;;;;;;;;12.70;99.90;;;;;;4935300;29;19915;-68
2023/04/24 02:40:01;;;;;;;;;;;12.60;99.90;;;;;;4934462;29;19919;-68
2023/04/24 02:42:27;;;;;;;;;;;12.60;99.90;;;;;;4935670;29;19910;-68
2023/04/24 02:44:53;;;;;;;;;;;12.70;99.90;;;;;;4934939;29;19977;-68
2023/04/24 02:47:18;;;;;;;;;;;12.70;99.90;;;;;;4934935;29;19929;-68
2023/04/24 02:49:44;;;;;;;;;;;12.60;99.90;;;;;;4932466;29;19914;-67
2023/04/24 02:52:10;;;;;;;;;;;12.60;99.90;;;;;;4949148;29;19922;-67
2023/04/24 02:54:36;;;;;;;;;;;12.60;99.90;;;;;;4944890;29;19965;-67
2023/04/24 02:57:02;;;;;;;;;;;12.60;99.90;;;;;;4935532;29;20364;-67
2023/04/24 02:59:29;;;;;;;;;;;12.50;99.90;;;;;;4932910;29;19930;-67
2023/04/24 03:01:54;;;;;;;;;;;12.50;99.90;;;;;;4935526;29;19915;-67
2023/04/24 03:04:20;;;;;;;;;;;12.50;99.90;;;;;;4936640;29;20342;-67
2023/04/24 03:06:46;;;;;;;;;;;12.40;99.90;;;;;;4934241;29;20319;-67
2023/04/24 03:09:11;;;;;;;;;;;12.30;99.90;;;;;;4946429;29;19937;-67
2023/04/24 03:11:37;;;;;;;;;;;12.30;99.90;;;;;;4930399;29;19915;-67
2023/04/24 03:14:02;;;;;;;;;;;12.20;99.90;;;;;;4934686;29;19911;-67
2023/04/24 03:16:28;;;;;;;;;;;12.10;99.90;;;;;;4934542;29;20609;-67
2023/04/24 03:18:54;;;;;;;;;;;12.10;99.90;;;;;;4934868;29;20024;-67
2023/04/24 03:21:20;;;;;;;;;;;12.10;99.90;;;;;;4935256;29;19929;-67
2023/04/24 03:23:45;;;;;;;;;;;12.10;99.90;;;;;;4934169;29;20395;-67
2023/04/24 03:26:11;;;;;;;;;;;12.10;99.90;;;;;;4934651;29;19994;-67
2023/04/24 03:28:36;;;;;;;;;;;12.10;99.90;;;;;;4934493;29;20009;-67
2023/04/24 03:31:02;;;;;;;;;;;12.10;99.90;;;;;;4933424;29;20649;-67
2023/04/24 03:33:28;;;;;;;;;;;12.10;99.90;;;;;;4934374;29;20257;-70
2023/04/24 03:35:54;;;;;;;;;;;12.10;99.90;;;;;;4934895;29;19925;-70
2023/04/24 03:38:19;;;;;;;;;;;12.10;99.90;;;;;;4933520;29;19919;-70
2023/04/24 03:40:45;;;;;;;;;;;12.10;99.90;;;;;;4934880;29;19970;-70
2023/04/24 03:43:11;;;;;;;;;;;12.00;99.90;;;;;;4935214;29;19993;-70
2023/04/24 03:45:36;;;;;;;;;;;12.00;99.90;;;;;;4918337;29;20046;-70
2023/04/24 03:48:02;;;;;;;;;;;12.00;99.90;;;;;;4933807;29;19981;-70
2023/04/24 03:50:29;;;;;;;;;;;12.00;99.90;;;;;;4934640;29;19989;-70
2023/04/24 03:52:54;;;;;;;;;;;12.00;99.90;;;;;;4946730;29;19915;-70
2023/04/24 03:55:20;;;;;;;;;;;12.00;99.90;;;;;;4937272;29;20037;-69
2023/04/24 03:57:46;;;;;;;;;;;12.00;99.90;;;;;;4927248;29;19915;-70
2023/04/24 04:00:14;;;;;;;;;;;12.00;99.90;;;;;;4942287;29;19966;-70
2023/04/24 04:02:40;;;;;;;;;;;12.00;99.90;;;;;;4940568;29;19911;-70
2023/04/24 04:05:06;;;;;;;;;;;12.00;99.90;;;;;;4934519;29;19946;-70
2023/04/24 04:07:31;;;;;;;;;;;11.90;99.90;;;;;;4918544;29;19950;-70
2023/04/24 04:09:57;;;;;;;;;;;12.00;99.90;;;;;;4932866;29;19911;-70
2023/04/24 04:12:24;;;;;;;;;;;12.00;99.90;;;;;;4917675;29;20370;-70
2023/04/24 04:14:50;;;;;;;;;;;12.00;99.90;;;;;;4920073;29;19919;-70
2023/04/24 04:17:15;;;;;;;;;;;12.00;99.90;;;;;;4931188;29;19946;-70
2023/04/24 04:19:41;;;;;;;;;;;12.00;99.90;;;;;;4924993;29;19919;-70
2023/04/24 04:22:07;;;;;;;;;;;11.90;99.90;;;;;;4924421;29;20563;-70
2023/04/24 04:24:37;;;;;;;;;;;11.80;99.90;;;;;;4907530;29;20009;-70
2023/04/24 04:27:06;;;;;;;;;;;11.90;99.90;;;;;;4924928;29;20285;-70
2023/04/24 04:29:32;;;;;;;;;;;11.80;99.90;;;;;;4918227;29;20323;-70
2023/04/24 04:31:58;;;;;;;;;;;11.90;99.90;;;;;;4941510;29;20380;-70
2023/04/24 04:34:24;;;;;;;;;;;11.90;99.90;;;;;;4935690;29;19942;-70
2023/04/24 04:36:50;;;;;;;;;;;12.00;99.90;;;;;;4940049;29;19945;-70
2023/04/24 04:39:16;;;;;;;;;;;11.90;99.90;;;;;;4926861;29;19918;-69
2023/04/24 04:41:42;;;;;;;;;;;11.90;99.90;;;;;;4927510;29;19918;-69
2023/04/24 04:44:08;;;;;;;;;;;11.90;99.90;;;;;;4929566;29;19925;-70
2023/04/24 04:46:34;;;;;;;;;;;11.80;99.90;;;;;;4938114;29;19914;-69
2023/04/24 04:49:01;;;;;;;;;;;11.70;99.90;;;;;;4927982;29;19933;-70
2023/04/24 04:51:27;;;;;;;;;;;11.90;99.90;;;;;;4930670;29;20639;-69
2023/04/24 04:53:52;;;;;;;;;;;11.80;99.90;;;;;;4918022;29;19921;-69
2023/04/24 04:56:18;;;;;;;;;;;11.80;99.90;;;;;;4923430;29;19947;-69
2023/04/24 04:58:44;;;;;;;;;;;11.80;99.90;;;;;;4929823;29;19921;-69
2023/04/24 05:01:10;;;;;;;;;;;11.90;99.90;;;;;;4926497;29;20324;-69
2023/04/24 05:03:35;;;;;;;;;;;12.00;99.90;;;;;;4929280;29;19915;-69
2023/04/24 05:06:01;;;;;;;;;;;11.90;99.90;;;;;;4918950;29;19926;-69
2023/04/24 05:08:27;;;;;;;;;;;11.90;99.90;;;;;;4899317;29;20431;-69
2023/04/24 05:10:54;;;;;;;;;;;11.90;99.90;;;;;;4913770;29;19914;-69
2023/04/24 05:13:20;;;;;;;;;;;12.00;99.90;;;;;;4907698;29;19915;-69
2023/04/24 05:15:45;;;;;;;;;;;11.90;99.90;;;;;;4919087;29;20387;-70
2023/04/24 05:18:11;;;;;;;;;;;11.90;99.90;;;;;;4913123;29;19925;-70
2023/04/24 05:20:37;;;;;;;;;;;12.00;99.90;;;;;;4925373;29;19915;-70
2023/04/24 05:23:03;;;;;;;;;;;11.90;99.90;;;;;;4933056;29;20310;-70
2023/04/24 05:25:32;;;;;;;;;;;12.00;99.90;;;;;;4935674;29;19925;-69
2023/04/24 05:27:57;;;;;;;;;;;12.00;99.90;;;;;;4914372;29;19914;-70
2023/04/24 05:30:23;;;;;;;;;;;12.00;99.90;;;;;;4918531;29;19994;-70
2023/04/24 05:32:49;;;;;;;;;;;12.00;99.90;;;;;;4921450;29;20426;-70
2023/04/24 05:35:16;;;;;;;;;;;12.00;99.90;;;;;;4903845;29;19938;-70
2023/04/24 05:37:42;;;;;;;;;;;12.10;99.90;;;;;;4920896;29;20279;-70
2023/04/24 05:40:09;;;;;;;;;;;12.00;99.90;;;;;;4911858;29;19918;-70
2023/04/24 05:42:34;;;;;;;;;;;12.00;99.90;;;;;;4927641;29;19914;-70
2023/04/24 05:45:00;;;;;;;;;;;12.00;99.90;;;;;;4914954;29;19919;-70
2023/04/24 05:47:26;;;;;;;;;;;12.00;99.90;;;;;;4933363;29;19989;-70
2023/04/24 05:49:52;;;;;;;;;;;12.00;99.90;;;;;;4897333;29;20315;-70
2023/04/24 05:52:17;;;;;;;;;;;12.00;99.90;;;;;;4924972;29;20531;-70
2023/04/24 05:54:43;;;;;;;;;;;12.00;99.90;;;;;;4921666;29;19997;-70
2023/04/24 05:57:08;;;;;;;;;;;12.00;99.90;;;;;;4936022;29;19914;-70
2023/04/24 05:59:36;;;;;;;;;;;12.10;99.90;;;;;;4936031;29;19915;-70
2023/04/24 06:02:01;;;;;;;;;;;12.10;99.90;;;;;;4937266;29;20412;-70
2023/04/24 06:04:27;;;;;;;;;;;12.20;99.90;;;;;;4933140;29;20001;-72
2023/04/24 06:06:55;;;;;;;;;;;12.20;99.90;;;;;;4936021;29;20271;-70
2023/04/24 06:09:24;;;;;;;;;;;12.30;99.90;;;;;;4933694;29;19918;-70
2023/04/24 06:11:52;;;;;;;;;;;12.30;99.90;;;;;;4936175;29;20403;-70
2023/04/24 06:14:18;;;;;;;;;;;12.30;99.90;;;;;;4948504;29;19958;-71
2023/04/24 06:16:44;;;;;;;;;;;12.30;99.90;;;;;;4935105;29;19911;-70
2023/04/24 06:19:09;;;;;;;;;;;12.30;99.90;;;;;;4949612;29;19925;-71
2023/04/24 06:21:35;;;;;;;;;;;12.40;99.90;;;;;;4948672;29;20005;-71
2023/04/24 06:24:01;;;;;;;;;;;12.50;99.90;;;;;;4951566;29;19918;-71
2023/04/24 06:26:27;;;;;;;;;;;12.40;99.90;;;;;;4935521;29;19922;-71
2023/04/24 06:28:56;;;;;;;;;;;12.40;99.90;;;;;;4934511;29;19915;-70
2023/04/24 06:31:22;;;;;;;;;;;12.50;99.90;;;;;;4951448;29;19915;-71
2023/04/24 06:33:48;;;;;;;;;;;12.60;99.90;;;;;;4950674;29;19911;-71
2023/04/24 06:36:14;;;;;;;;;;;12.60;99.90;;;;;;4934165;29;19914;-71
2023/04/24 06:38:39;;;;;;;;;;;12.60;99.90;;;;;;4949483;29;19915;-71
2023/04/24 06:41:05;;;;;;;;;;;12.60;99.90;;;;;;4919834;29;19964;-70
2023/04/24 06:43:31;;;;;;;;;;;12.60;99.90;;;;;;4935802;29;19922;-70
2023/04/24 06:45:57;;;;;;;;;;;12.50;99.90;;;;;;4935179;29;20296;-70
2023/04/24 06:48:24;;;;;;;;;;;12.50;99.90;;;;;;4935264;29;19993;-74
2023/04/24 06:50:49;;;;;;;;;;;12.50;99.90;;;;;;4937123;29;19914;-74
2023/04/24 06:53:15;;;;;;;;;;;12.50;99.90;;;;;;4950132;29;19915;-73
2023/04/24 06:55:41;;;;;;;;;;;12.70;99.90;;;;;;4935802;29;19922;-67
2023/04/24 06:58:06;;;;;;;;;;;12.70;99.90;;;;;;4935761;29;19917;-67
2023/04/24 07:00:32;;;;;;;;;;;12.50;99.90;;;;;;4950043;28;19919;-67
2023/04/24 07:02:58;;;;;;;;;;;12.60;99.90;;;;;;4934242;29;19966;-67
2023/04/24 07:05:24;;;;;;;;;;;12.60;99.90;;;;;;4935602;29;19950;-67
2023/04/24 07:07:51;;;;;;;;;;;12.60;99.90;;;;;;4948833;29;20313;-68
2023/04/24 07:10:16;;;;;;;;;;;12.60;99.90;;;;;;4951298;29;20344;-67
2023/04/24 07:12:42;;;;;;;;;;;12.70;99.90;;;;;;4933776;29;20002;-67
2023/04/24 07:15:08;;;;;;;;;;;12.70;99.90;;;;;;4932557;29;20727;-67
2023/04/24 07:17:34;;;;;;;;;;;12.90;99.90;;;;;;4934315;29;20339;-67
2023/04/24 07:20:00;;;;;;;;;;;12.90;99.90;;;;;;4950202;28;19911;-67
2023/04/24 07:22:26;;;;;;;;;;;13.00;99.90;;;;;;4934940;29;20602;-67
2023/04/24 07:24:51;;;;;;;;;;;13.10;99.90;;;;;;4951037;29;20001;-67
2023/04/24 07:27:17;;;;;;;;;;;13.20;99.90;;;;;;4947067;29;19921;-67
2023/04/24 07:29:43;;;;;;;;;;;13.10;99.90;;;;;;4934868;29;20220;-67
2023/04/24 07:32:09;;;;;;;;;;;13.10;99.90;;;;;;4950533;29;19915;-67
2023/04/24 07:34:34;;;;;;;;;;;13.10;99.90;;;;;;4951106;29;20391;-67
2023/04/24 07:37:00;;;;;;;;;;;13.10;99.90;;;;;;4934837;29;19910;-67
2023/04/24 07:39:26;;;;;;;;;;;12.60;99.90;;;;;;4935150;29;19914;-67
2023/04/24 07:41:51;;;;;;;;;;;12.20;99.90;;;;;;4914647;29;20245;-67
2023/04/24 07:44:17;;;;;;;;;;;12.00;99.90;;;;;;4934342;29;20536;-67
2023/04/24 07:46:43;;;;;;;;;;;11.80;99.90;;;;;;4934326;29;20053;-67
2023/04/24 07:49:08;;;;;;;;;;;11.60;99.90;;;;;;4934701;29;19911;-67
2023/04/24 07:51:38;;;;;;;;;;;11.40;99.90;;;;;;4935037;29;19945;-67
2023/04/24 07:54:05;;;;;;;;;;;11.30;99.90;;;;;;4933553;29;19925;-67
2023/04/24 07:56:31;;;;;;;;;;;11.40;99.90;;;;;;4899324;29;20021;-67
2023/04/24 07:58:56;;;;;;;;;;;11.40;99.90;;;;;;4914937;29;20006;-67
2023/04/24 08:01:22;;;;;;;;;;;11.40;99.90;;;;;;4914846;29;20026;-67
2023/04/24 08:03:48;;;;;;;;;;;11.40;99.90;;;;;;4917944;29;19921;-67
2023/04/24 08:06:14;;;;;;;;;;;11.30;99.90;;;;;;4910158;29;20585;-67
2023/04/24 08:08:39;;;;;;;;;;;11.30;99.90;;;;;;4916431;29;19925;-67
2023/04/24 08:11:05;;;;;;;;;;;11.50;99.90;;;;;;4913754;29;19915;-67
2023/04/24 08:13:31;;;;;;;;;;;11.60;99.90;;;;;;4905668;29;20005;-67
2023/04/24 08:15:56;;;;;;;;;;;11.60;99.90;;;;;;4913687;29;19919;-67
2023/04/24 08:18:22;;;;;;;;;;;11.50;99.90;;;;;;4914921;29;19922;-67
2023/04/24 08:20:48;;;;;;;;;;;11.60;99.90;;;;;;4911553;29;19914;-67
2023/04/24 08:23:13;;;;;;;;;;;11.70;99.90;;;;;;4914376;29;20545;-67
2023/04/24 08:25:39;;;;;;;;;;;11.70;99.90;;;;;;4914735;29;20046;-67
2023/04/24 08:28:05;;;;;;;;;;;11.80;99.90;;;;;;4913507;29;20009;-67
2023/04/24 08:30:31;;;;;;;;;;;11.90;99.90;;;;;;4913001;29;19915;-67
2023/04/24 08:32:56;;;;;;;;;;;12.00;99.90;;;;;;4889021;29;19915;-67
2023/04/24 08:35:22;;;;;;;;;;;11.90;99.90;;;;;;4917685;29;19933;-67
2023/04/24 08:37:48;;;;;;;;;;;12.10;99.90;;;;;;4918699;29;19911;-67
2023/04/24 08:40:14;;;;;;;;;;;12.00;99.90;;;;;;4918630;29;20349;-67
2023/04/24 08:42:43;;;;;;;;;;;11.90;99.90;;;;;;4916270;29;19910;-67
2023/04/24 08:45:10;;;;;;;;;;;11.90;99.90;;;;;;4930160;29;19914;-67
2023/04/24 08:47:38;;;;;;;;;;;12.00;99.90;;;;;;4925340;29;19923;-67
2023/04/24 08:50:05;;;;;;;;;;;11.90;99.90;;;;;;4934269;29;19915;-67
2023/04/24 08:52:34;;;;;;;;;;;12.10;99.90;;;;;;4925832;29;19915;-67
2023/04/24 08:55:00;;;;;;;;;;;12.10;99.90;;;;;;4928023;29;19929;-67
2023/04/24 08:57:26;;;;;;;;;;;12.30;99.90;;;;;;4948124;29;19935;-68
2023/04/24 08:59:51;;;;;;;;;;;12.40;99.90;;;;;;4921553;29;19918;-68
2023/04/24 09:02:17;;;;;;;;;;;12.50;99.90;;;;;;4937326;29;20005;-67
2023/04/24 09:04:43;;;;;;;;;;;12.50;99.90;;;;;;4952488;29;19950;-68
2023/04/24 09:07:08;;;;;;;;;;;12.40;99.90;;;;;;4935959;29;19915;-67
2023/04/24 09:09:34;;;;;;;;;;;12.40;99.90;;;;;;4937732;29;19985;-68
2023/04/24 09:12:00;;;;;;;;;;;12.50;99.90;;;;;;4952464;28;20644;-67
2023/04/24 09:14:25;;;;;;;;;;;12.60;99.90;;;;;;4934027;29;19925;-67
2023/04/24 09:16:51;;;;;;;;;;;12.50;99.90;;;;;;4937804;29;20316;-67
2023/04/24 09:19:17;;;;;;;;;;;12.50;99.90;;;;;;4936985;29;19918;-68
2023/04/24 09:21:45;;;;;;;;;;;12.70;99.90;;;;;;4952823;29;19950;-68
2023/04/24 09:24:17;;;;;;;;;;;12.80;99.90;;;;;;4935538;29;19994;-67
2023/04/24 09:26:43;;;;;;;;;;;12.90;99.90;;;;;;4941047;29;19921;-67
2023/04/24 09:29:13;;;;;;;;;;;12.90;99.90;;;;;;4944359;29;20511;-67
2023/04/24 09:31:39;;;;;;;;;;;12.90;99.90;;;;;;4920779;29;19946;-67
2023/04/24 09:34:07;;;;;;;;;;;12.90;99.90;;;;;;4952952;29;19953;-68
2023/04/24 09:36:33;;;;;;;;;;;13.00;99.90;;;;;;4937001;29;19922;-68
2023/04/24 09:39:02;;;;;;;;;;;13.10;99.90;;;;;;4937746;29;19911;-67
2023/04/24 09:41:31;;;;;;;;;;;13.20;99.90;;;;;;4935383;29;19915;-67
2023/04/24 09:43:57;;;;;;;;;;;13.10;99.90;;;;;;4951821;29;19915;-67
2023/04/24 09:46:29;;;;;;;;;;;13.00;99.90;;;;;;4937101;29;19929;-67
2023/04/24 09:48:55;;;;;;;;;;;13.00;99.90;;;;;;4936165;29;19914;-68
2023/04/24 09:51:32;;;;;;;;;;;13.10;99.90;;;;;;4936802;29;19946;-67
2023/04/24 09:53:58;;;;;;;;;;;13.30;98.80;;;;;;4936538;29;19922;-67
2023/04/24 09:56:24;;;;;;;;;;;13.30;99.10;;;;;;4942694;29;19921;-67
2023/04/24 09:58:49;;;;;;;;;;;13.30;99.00;;;;;;4949614;29;19910;-68
2023/04/24 10:01:15;;;;;;;;;;;13.30;98.90;;;;;;4928681;29;19922;-67
2023/04/24 10:03:41;;;;;;;;;;;13.30;98.90;;;;;;4926744;29;20013;-68
2023/04/24 10:06:11;;;;;;;;;;;13.40;98.30;;;;;;4937791;29;19970;-67
2023/04/24 10:08:37;;;;;;;;;;;13.50;99.00;;;;;;4925510;29;19911;-68
2023/04/24 10:11:03;;;;;;;;;;;13.50;98.40;;;;;;4946746;29;19915;-67
2023/04/24 10:13:28;;;;;;;;;;;13.40;97.10;;;;;;4936707;29;20029;-67
2023/04/24 10:15:54;;;;;;;;;;;13.20;97.60;;;;;;4939416;29;19925;-68
2023/04/24 10:18:20;;;;;;;;;;;13.20;97.90;;;;;;4942269;29;20001;-67
2023/04/24 10:20:46;;;;;;;;;;;13.20;98.30;;;;;;4925462;29;19921;-67
2023/04/24 10:23:12;;;;;;;;;;;13.30;97.70;;;;;;4937388;29;19919;-67
2023/04/24 10:25:37;;;;;;;;;;;13.30;98.00;;;;;;4918803;29;19915;-67
2023/04/24 10:28:04;;;;;;;;;;;13.40;97.50;;;;;;4925747;29;19910;-67
2023/04/24 10:30:30;;;;;;;;;;;13.30;96.90;;;;;;4904458;29;19978;-67
2023/04/24 10:32:56;;;;;;;;;;;13.20;96.40;;;;;;4919461;29;20439;-67
2023/04/24 10:35:24;;;;;;;;;;;13.10;96.10;;;;;;4920236;29;19950;-67
2023/04/24 10:37:50;;;;;;;;;;;13.20;96.10;;;;;;4926454;29;19915;-66
2023/04/24 10:40:24;;;;;;;;;;;13.20;96.20;;;;;;4946760;29;19910;-67
2023/04/24 10:42:51;;;;;;;;;;;13.10;96.80;;;;;;4925538;29;20328;-67
2023/04/24 10:45:18;;;;;;;;;;;13.10;96.30;;;;;;4948279;29;19917;-68
2023/04/24 10:47:50;;;;;;;;;;;13.00;96.40;;;;;;4918205;29;19938;-67
2023/04/24 10:50:16;;;;;;;;;;;13.00;96.20;;;;;;4925182;29;19915;-68
2023/04/24 10:52:48;;;;;;;;;;;13.10;96.30;;;;;;4922175;29;19925;-67
2023/04/24 10:55:16;;;;;;;;;;;13.10;96.30;;;;;;4948084;29;20322;-68
2023/04/24 10:58:04;;;;;;;;;;;13.10;96.70;;;;;;4918726;29;20480;-70
2023/04/24 11:00:29;;;;;;;;;;;13.20;96.20;;;;;;4926237;29;19914;-70
2023/04/24 11:02:55;;;;;;;;;;;13.20;95.80;;;;;;4922273;29;20358;-70
2023/04/24 11:05:21;;;;;;;;;;;13.00;95.50;;;;;;4948340;29;19925;-70
2023/04/24 11:08:06;;;;;;;;;;;13.00;95.10;;;;;;4934227;29;19915;-70
2023/04/24 11:10:31;;;;;;;;;;;13.10;95.10;;;;;;4945254;29;20346;-71
2023/04/24 11:12:57;;;;;;;;;;;13.30;95.70;;;;;;4936230;29;19914;-70
2023/04/24 11:15:22;;;;;;;;;;;13.20;95.10;;;;;;4935942;29;20400;-70
2023/04/24 11:17:48;;;;;;;;;;;13.30;94.70;;;;;;4942920;29;20021;-70
2023/04/24 11:20:16;;;;;;;;;;;13.40;94.50;;;;;;4925412;29;19921;-70
2023/04/24 11:22:42;;;;;;;;;;;13.50;93.90;;;;;;4945235;29;19919;-71
2023/04/24 11:25:11;;;;;;;;;;;13.50;93.80;;;;;;4935022;29;19968;-70
2023/04/24 11:27:41;;;;;;;;;;;13.60;94.20;;;;;;4924791;29;19911;-70
2023/04/24 11:30:07;;;;;;;;;;;13.60;93.60;;;;;;4936045;29;20300;-69
2023/04/24 11:32:33;;;;;;;;;;;13.60;92.80;;;;;;4920428;29;19918;-70
2023/04/24 11:35:05;;;;;;;;;;;13.50;92.80;;;;;;4934844;29;19919;-71
2023/04/24 11:37:40;;;;;;;;;;;13.50;92.40;;;;;;4937729;29;19914;-70
2023/04/24 11:40:07;;;;;;;;;;;13.50;93.10;;;;;;4919048;29;19915;-71
2023/04/24 11:42:39;;;;;;;;;;;13.40;93.50;;;;;;4907385;29;20221;-74
2023/04/24 11:45:09;;;;;;;;;;;13.40;93.30;;;;;;4930354;29;20391;-75
2023/04/24 11:47:35;;;;;;;;;;;13.30;93.20;;;;;;4938370;29;19910;-75
2023/04/24 11:50:00;;;;;;;;;;;13.30;93.40;;;;;;4939972;29;20188;-75
2023/04/24 11:52:26;;;;;;;;;;;13.60;93.50;;;;;;4940092;29;19922;-75
2023/04/24 11:54:52;;;;;;;;;;;13.60;92.70;;;;;;4909769;29;19985;-75
2023/04/24 11:57:21;;;;;;;;;;;13.60;93.20;;;;;;4931734;29;19938;-75
2023/04/24 11:59:47;;;;;;;;;;;13.70;93.40;;;;;;4915350;29;19911;-75
2023/04/24 12:02:22;;;;;;;;;;;13.70;93.50;;;;;;4914128;29;19930;-74
2023/04/24 12:04:48;;;;;;;;;;;13.60;92.80;;;;;;4941959;28;19914;-70
2023/04/24 12:07:14;;;;;;;;;;;13.30;93.30;;;;;;4915155;29;19915;-70
2023/04/24 12:09:43;;;;;;;;;;;13.30;93.40;;;;;;4931243;29;19915;-70
2023/04/24 12:12:08;;;;;;;;;;;13.20;93.00;;;;;;4915114;29;19919;-70
2023/04/24 12:14:50;;;;;;;;;;;13.30;93.20;;;;;;4915175;29;20320;-70
2023/04/24 12:17:16;;;;;;;;;;;13.30;93.20;;;;;;4931524;29;20336;-70
2023/04/24 12:19:48;;;;;;;;;;;13.40;93.20;;;;;;4946772;29;19951;-70
2023/04/24 12:22:13;;;;;;;;;;;13.50;93.60;;;;;;4943855;29;20225;-70
2023/04/24 12:24:58;;;;;;;;;;;13.60;93.50;;;;;;4930660;29;20037;-70
2023/04/24 12:27:24;;;;;;;;;;;13.50;92.60;;;;;;4947473;29;19962;-70
2023/04/24 12:29:54;;;;;;;;;;;13.70;93.00;;;;;;4913200;29;19915;-70
2023/04/24 12:32:19;;;;;;;;;;;13.80;92.80;;;;;;4913106;29;19911;-70
2023/04/24 12:34:45;;;;;;;;;;;13.70;92.70;;;;;;4915078;29;19978;-71
2023/04/24 12:37:11;;;;;;;;;;;13.70;93.30;;;;;;4916334;29;19914;-69
2023/04/24 12:39:36;;;;;;;;;;;13.50;93.40;;;;;;4930120;29;19911;-71
2023/04/24 12:42:02;;;;;;;;;;;13.30;93.90;;;;;;4931041;29;20219;-70
2023/04/24 12:44:31;;;;;;;;;;;13.30;94.30;;;;;;4931156;29;19914;-70
2023/04/24 12:46:57;;;;;;;;;;;13.20;94.90;;;;;;4915214;29;19939;-70
2023/04/24 12:49:23;;;;;;;;;;;13.10;95.60;;;;;;4946907;29;19915;-70
2023/04/24 12:51:49;;;;;;;;;;;13.00;96.60;;;;;;4930522;29;20225;-71
2023/04/24 12:54:16;;;;;;;;;;;12.80;97.70;;;;;;4915513;29;20010;-70
2023/04/24 12:56:41;;;;;;;;;;;12.90;98.20;;;;;;4914779;29;19922;-70
2023/04/24 12:59:07;;;;;;;;;;;12.90;97.30;;;;;;4915884;29;19966;-70
2023/04/24 13:01:33;;;;;;;;;;;13.10;97.40;;;;;;4908138;29;19925;-70
2023/04/24 13:03:58;;;;;;;;;;;13.10;97.10;;;;;;4915186;29;19926;-70
2023/04/24 13:06:24;;;;;;;;;;;13.00;97.30;;;;;;4922391;29;19915;-70
2023/04/24 13:08:51;;;;;;;;;;;12.70;97.20;;;;;;4919014;29;19930;-70
2023/04/24 13:11:16;;;;;;;;;;;12.60;97.70;;;;;;4922233;29;19933;-69
2023/04/24 13:13:43;;;;;;;;;;;12.50;98.50;;;;;;4929405;29;19917;-70
2023/04/24 13:16:09;;;;;;;;;;;12.20;98.50;;;;;;4895922;29;19922;-70
2023/04/24 13:18:35;;;;;;;;;;;12.00;99.90;;;;;;4918159;29;19967;-70
2023/04/24 13:21:00;;;;;;;;;;;12.00;99.90;;;;;;4911008;29;19970;-71
2023/04/24 13:23:26;;;;;;;;;;;12.00;99.90;;;;;;4912139;29;19993;-70
2023/04/24 13:25:51;;;;;;;;;;;12.00;99.90;;;;;;4915855;29;20006;-70
2023/04/24 13:28:17;;;;;;;;;;;12.10;99.90;;;;;;4917180;29;19923;-70
2023/04/24 13:30:43;;;;;;;;;;;12.30;99.90;;;;;;4917354;29;19922;-70
2023/04/24 13:33:09;;;;;;;;;;;12.30;99.90;;;;;;4914642;29;19926;-70
2023/04/24 13:35:34;;;;;;;;;;;12.30;99.90;;;;;;4921719;29;19922;-70
2023/04/24 13:38:01;;;;;;;;;;;12.10;99.90;;;;;;4936773;29;19919;-69
2023/04/24 13:40:26;;;;;;;;;;;12.10;99.90;;;;;;4907411;29;19922;-70
2023/04/24 13:42:52;;;;;;;;;;;12.00;99.90;;;;;;4902013;29;19919;-70
2023/04/24 13:45:20;;;;;;;;;;;11.90;99.90;;;;;;4917405;29;20300;-69
2023/04/24 13:47:46;;;;;;;;;;;11.80;99.90;;;;;;4913702;29;20507;-70
2023/04/24 13:50:11;;;;;;;;;;;11.70;99.90;;;;;;4917502;29;19915;-70
2023/04/24 13:52:37;;;;;;;;;;;11.70;99.90;;;;;;4905736;29;19941;-69
2023/04/24 13:55:03;;;;;;;;;;;11.70;99.90;;;;;;4926485;29;20667;-70
2023/04/24 13:57:28;;;;;;;;;;;11.70;99.90;;;;;;4936866;29;19914;-70
2023/04/24 13:59:58;;;;;;;;;;;11.80;99.90;;;;;;4935880;29;20247;-70
2023/04/24 14:02:23;;;;;;;;;;;11.70;99.90;;;;;;4936490;29;19934;-70
2023/04/24 14:04:49;;;;;;;;;;;11.60;99.90;;;;;;4936782;29;19915;-70
2023/04/24 14:07:15;;;;;;;;;;;11.50;99.90;;;;;;4938694;29;19926;-69
2023/04/24 14:09:40;;;;;;;;;;;11.40;99.90;;;;;;4936885;29;19914;-70
2023/04/24 14:12:06;;;;;;;;;;;11.40;99.90;;;;;;4951673;29;19915;-71